^^
Station Historical Data
Daily Summary for January 9, 2017 Units:  Metric    English   Both
« Previous Day
Next Day »
Daily Weekly Monthly Yearly Custom
  High: Low: Average:
Temperature: -17.8 °C -18.4 °C -17.7 °C
Dew Point: -17.8 °C -19.1 °C -18.3 °C
Humidity: Humidity% 92% 92%
Wind Speed: 0km/h 0km/h 1km/h
Wind Gust: 0km/h - -
Wind- - SW
Pressure: 0 hPa 34235.8 hPa -
Precipitation: 0 mm    
Historical Graphs
 
 
Tabular Data for January 9, 2017
Time Temperature Dew Point Pressure Wind Wind Speed Wind Gust Humidity Rainfall Rate (Hourly) solar Conditions
-17.8 °C -17.8 °C 0 hPa Calm     Humidity% 0 mm SoftwareType W/m2 Conditions
00:03 -17.5 °C -18.2 °C 34405.1 hPa West 2.1 km/h 6 km/h 92% 0 mm WeatherDisplay:10.37 W/m2 FEW
00:08 -17.5 °C -18.2 °C 34405.1 hPa WNW 8.5 km/h 23.8 km/h 92% 0 mm WeatherDisplay:10.37 W/m2 FEW
00:13 -17.4 °C -18.1 °C 34395 hPa NNE 3.9 km/h 9 km/h 92% 0 mm WeatherDisplay:10.37 W/m2 FEW
00:23 -17.5 °C -18.2 °C 34395 hPa Calm     92% 0 mm WeatherDisplay:10.37 W/m2 FEW
00:28 -17.5 °C -18.2 °C 34395 hPa SE 3.1 km/h   92% 0 mm WeatherDisplay:10.37 W/m2 FEW
00:33 -17.5 °C -18.2 °C 34395 hPa SE 2.1 km/h 3.1 km/h 92% 0 mm WeatherDisplay:10.37 W/m2 FEW
00:38 -17.5 °C -18.2 °C 34395 hPa ENE 0.3 km/h 5.1 km/h 92% 0 mm WeatherDisplay:10.37 W/m2 FEW
00:43 -17.5 °C -18.2 °C 34384.8 hPa Calm     92% 0 mm WeatherDisplay:10.37 W/m2 FEW
00:48 -17.6 °C -18.2 °C 34384.8 hPa SSW 1.3 km/h 9 km/h 92% 0 mm WeatherDisplay:10.37 W/m2 FEW
00:53 -17.6 °C -18.2 °C 34384.8 hPa Calm     92% 0 mm WeatherDisplay:10.37 W/m2 FEW
00:58 -17.6 °C -18.2 °C 34371.3 hPa West 1.8 km/h 9 km/h 92% 0 mm WeatherDisplay:10.37 W/m2 FEW
01:08 -17.6 °C -18.2 °C 34371.3 hPa Calm     92% 0 mm WeatherDisplay:10.37 W/m2 FEW
01:13 -17.6 °C -18.2 °C 34361.1 hPa Calm     92% 0 mm WeatherDisplay:10.37 W/m2 FEW
01:18 -17.6 °C -18.2 °C 34371.3 hPa SE 0.5 km/h 2.6 km/h 92% 0 mm WeatherDisplay:10.37 W/m2 FEW
01:23 -17.6 °C -18.2 °C 34371.3 hPa Calm   9 km/h 92% 0 mm WeatherDisplay:10.37 W/m2 FEW
01:28 -17.6 °C -18.3 °C 34384.8 hPa Calm     92% 0 mm WeatherDisplay:10.37 W/m2 FEW
01:33 -17.6 °C -18.3 °C 34371.3 hPa Calm     92% 0 mm WeatherDisplay:10.37 W/m2 FEW
01:38 -17.6 °C -18.3 °C 34371.3 hPa WNW 1.3 km/h 6 km/h 92% 0 mm WeatherDisplay:10.37 W/m2 FEW
01:43 -17.7 °C -18.3 °C 34384.8 hPa Calm     92% 0 mm WeatherDisplay:10.37 W/m2 FEW
01:48 -17.7 °C -18.3 °C 34384.8 hPa Calm     92% 0 mm WeatherDisplay:10.37 W/m2 FEW
01:53 -17.7 °C -18.3 °C 34384.8 hPa WNW 2.3 km/h 10.3 km/h 92% 0 mm WeatherDisplay:10.37 W/m2 FEW
01:58 -17.7 °C -18.3 °C 34384.8 hPa WSW 2.6 km/h 5.1 km/h 92% 0 mm WeatherDisplay:10.37 W/m2 FEW
02:03 -17.7 °C -18.3 °C 34384.8 hPa NW 5.1 km/h 5.1 km/h 92% 0 mm WeatherDisplay:10.37 W/m2 FEW
02:08 -17.7 °C -18.3 °C 34384.8 hPa Calm     92% 0 mm WeatherDisplay:10.37 W/m2 FEW
02:13 -17.7 °C -18.3 °C 34384.8 hPa WSW 1.6 km/h 11.9 km/h 92% 0 mm WeatherDisplay:10.37 W/m2 FEW
02:18 -17.7 °C -18.4 °C 34384.8 hPa WSW 1 km/h 7.7 km/h 92% 0 mm WeatherDisplay:10.37 W/m2 FEW
02:23 -17.7 °C -18.4 °C 34384.8 hPa Calm     92% 0 mm WeatherDisplay:10.37 W/m2 FEW
02:28 -17.7 °C -18.4 °C 34384.8 hPa SW 5.1 km/h 9 km/h 92% 0 mm WeatherDisplay:10.37 W/m2 FEW
02:33 -17.7 °C -18.4 °C 34384.8 hPa Calm   2.6 km/h 92% 0 mm WeatherDisplay:10.37 W/m2 FEW
02:38 -17.7 °C -18.4 °C 34384.8 hPa West 0.3 km/h 9 km/h 92% 0 mm WeatherDisplay:10.37 W/m2 FEW
02:43 -17.8 °C -18.4 °C 34384.8 hPa NW 4.7 km/h 15 km/h 92% 0 mm WeatherDisplay:10.37 W/m2 FEW
02:48 -17.8 °C -18.4 °C 34384.8 hPa NW 1.6 km/h 11.9 km/h 92% 0 mm WeatherDisplay:10.37 W/m2 FEW
02:53 -17.9 °C -18.5 °C 34384.8 hPa WNW 0.3 km/h 11.9 km/h 92% 0 mm WeatherDisplay:10.37 W/m2 FEW
03:03 -17.9 °C -18.6 °C 34395 hPa NW 3.7 km/h 9 km/h 92% 0 mm WeatherDisplay:10.37 W/m2 FEW
03:08 -17.9 °C -18.6 °C 34395 hPa Calm   9 km/h 92% 0 mm WeatherDisplay:10.37 W/m2 FEW
03:13 -17.9 °C -18.6 °C 34395 hPa West 6.8 km/h 9 km/h 92% 0 mm WeatherDisplay:10.37 W/m2 FEW
03:19 -18 °C -18.6 °C 34384.8 hPa Calm   3.1 km/h 93% 0 mm WeatherDisplay:10.37 W/m2 FEW
03:24 -18 °C -18.6 °C 34384.8 hPa WNW 0.3 km/h   93% 0 mm WeatherDisplay:10.37 W/m2 FEW
03:29 -18.1 °C -18.6 °C 34384.8 hPa NNW 4.3 km/h 9 km/h 93% 0 mm WeatherDisplay:10.37 W/m2 FEW
03:34 -18.1 °C -18.7 °C 34395 hPa NNW 6.8 km/h 11.9 km/h 92% 0 mm WeatherDisplay:10.37 W/m2 FEW
03:39 -18.1 °C -18.7 °C 34395 hPa West 3.4 km/h 6 km/h 92% 0 mm WeatherDisplay:10.37 W/m2 FEW
03:44 -18.1 °C -18.7 °C 34395 hPa SW 0.3 km/h   92% 0 mm WeatherDisplay:10.37 W/m2 FEW
03:49 -18.1 °C -18.7 °C 34395 hPa WNW 3.4 km/h 5.1 km/h 92% 0 mm WeatherDisplay:10.37 W/m2 FEW
03:54 -18.1 °C -18.7 °C 34395 hPa NNW 6.8 km/h 9 km/h 92% 0 mm WeatherDisplay:10.37 W/m2 FEW
03:59 -18.1 °C -18.7 °C 34395 hPa NW 4.7 km/h 9 km/h 92% 0 mm WeatherDisplay:10.37 W/m2 FEW
04:04 -18.2 °C -18.8 °C 34395 hPa West 4.2 km/h 9 km/h 92% 0 mm WeatherDisplay:10.37 W/m2 FEW
04:09 -18.2 °C -18.8 °C 34395 hPa WNW 1.6 km/h 9 km/h 92% 0 mm WeatherDisplay:10.37 W/m2 FEW
04:14 -18.2 °C -18.7 °C 34395 hPa Calm   3.1 km/h 93% 0 mm WeatherDisplay:10.37 W/m2 FEW
04:19 -18.2 °C -18.7 °C 34395 hPa WNW 3.1 km/h 9 km/h 93% 0 mm WeatherDisplay:10.37 W/m2 FEW
04:24 -18.2 °C -18.8 °C 34395 hPa NW 1 km/h 9 km/h 93% 0 mm WeatherDisplay:10.37 W/m2 FEW
04:29 -18.2 °C -18.8 °C 34384.8 hPa Calm     93% 0 mm WeatherDisplay:10.37 W/m2 FEW
04:34 -18.2 °C -18.8 °C 34384.8 hPa Calm     93% 0 mm WeatherDisplay:10.37 W/m2 FEW
04:39 -18.2 °C -18.8 °C 34384.8 hPa WSW 2.9 km/h 7.7 km/h 93% 0 mm WeatherDisplay:10.37 W/m2 FEW
04:44 -18.2 °C -18.8 °C 34384.8 hPa WSW 1.3 km/h 6 km/h 93% 0 mm WeatherDisplay:10.37 W/m2 FEW
04:49 -18.2 °C -18.8 °C 34384.8 hPa Calm     93% 0 mm WeatherDisplay:10.37 W/m2 FEW
04:54 -18.2 °C -18.8 °C 34384.8 hPa Calm     93% 0 mm WeatherDisplay:10.37 W/m2 FEW
04:59 -18.2 °C -18.8 °C 34384.8 hPa WSW 1.6 km/h 3.1 km/h 93% 0 mm WeatherDisplay:10.37 W/m2 FEW
05:04 -18.2 °C -18.8 °C 34384.8 hPa West 3.1 km/h 7.7 km/h 93% 0 mm WeatherDisplay:10.37 W/m2 FEW
05:09 -18.2 °C -18.8 °C 34384.8 hPa WNW 2.6 km/h 9 km/h 92% 0 mm WeatherDisplay:10.37 W/m2 FEW
05:14 -18.3 °C -18.9 °C 34384.8 hPa Calm     92% 0 mm WeatherDisplay:10.37 W/m2 FEW
05:19 -18.3 °C -18.9 °C 34371.3 hPa Calm     92% 0 mm WeatherDisplay:10.37 W/m2 FEW
05:24 -18.3 °C -18.8 °C 34384.8 hPa Calm   3.1 km/h 93% 0 mm WeatherDisplay:10.37 W/m2 FEW
05:29 -18.3 °C -18.8 °C 34384.8 hPa West 0.8 km/h 7.7 km/h 93% 0 mm WeatherDisplay:10.37 W/m2 FEW
05:34 -18.3 °C -18.8 °C 34371.3 hPa West 3.4 km/h 6 km/h 93% 0 mm WeatherDisplay:10.37 W/m2 FEW
05:39 -18.3 °C -18.8 °C 34384.8 hPa Calm     93% 0 mm WeatherDisplay:10.37 W/m2 FEW
05:44 -18.3 °C -18.9 °C 34371.3 hPa Calm     93% 0 mm WeatherDisplay:10.37 W/m2 FEW
05:49 -18.3 °C -18.9 °C 34371.3 hPa Calm   9 km/h 93% 0 mm WeatherDisplay:10.37 W/m2 FEW
05:54 -18.4 °C -18.9 °C 34371.3 hPa Calm     93% 0 mm WeatherDisplay:10.37 W/m2 FEW
05:59 -18.4 °C -18.9 °C 34371.3 hPa Calm     93% 0 mm WeatherDisplay:10.37 W/m2 FEW
06:04 -18.4 °C -19 °C 34371.3 hPa Calm     92% 0 mm WeatherDisplay:10.37 W/m2 FEW
06:09 -18.4 °C -19 °C 34371.3 hPa Calm     92% 0 mm WeatherDisplay:10.37 W/m2 FEW
06:14 -18.4 °C -18.9 °C 34371.3 hPa Calm     93% 0 mm WeatherDisplay:10.37 W/m2 FEW
06:19 -18.4 °C -18.9 °C 34371.3 hPa WSW 1.3 km/h 6 km/h 93% 0 mm WeatherDisplay:10.37 W/m2 FEW
06:24 -18.4 °C -18.9 °C 34371.3 hPa Calm   6 km/h 93% 0 mm WeatherDisplay:10.37 W/m2 FEW
06:29 -18.4 °C -18.9 °C 34371.3 hPa SSW 0.5 km/h 5.1 km/h 93% 0 mm WeatherDisplay:10.37 W/m2 FEW
06:34 -18.4 °C -18.9 °C 34384.8 hPa NW 1 km/h 9 km/h 93% 0 mm WeatherDisplay:10.37 W/m2 FEW
06:39 -18.4 °C -19 °C 34384.8 hPa WNW 2.3 km/h   92% 0 mm WeatherDisplay:10.37 W/m2 FEW
06:44 -18.4 °C -19 °C 34384.8 hPa Calm     92% 0 mm WeatherDisplay:10.37 W/m2 FEW
06:49 -18.4 °C -19 °C 34384.8 hPa West 0.3 km/h 9 km/h 92% 0 mm WeatherDisplay:10.37 W/m2 FEW
06:54 -18.4 °C -19 °C 34384.8 hPa WNW 0.5 km/h   92% 0 mm WeatherDisplay:10.37 W/m2 FEW
06:59 -18.4 °C -19.1 °C 34384.8 hPa West 0.3 km/h 9 km/h 92% 0 mm WeatherDisplay:10.37 W/m2 FEW
07:04 -18.4 °C -19 °C 34384.8 hPa West 1 km/h 2.6 km/h 92% 0 mm WeatherDisplay:10.37 W/m2 FEW
07:09 -18.4 °C -19.1 °C 34384.8 hPa West 3.7 km/h 9 km/h 92% 0 mm WeatherDisplay:10.37 W/m2 FEW
07:14 -18.4 °C -19.1 °C 34371.3 hPa Calm     92% 0 mm WeatherDisplay:10.37 W/m2 FEW
07:19 -18.4 °C -19.1 °C 34371.3 hPa Calm     92% 0 mm WeatherDisplay:10.37 W/m2 FEW
07:24 -18.4 °C -19.1 °C 34371.3 hPa Calm     92% 0 mm WeatherDisplay:10.37 W/m2 FEW
07:29 -18.4 °C -19 °C 34371.3 hPa Calm     92% 0 mm WeatherDisplay:10.37 W/m2 FEW
07:34 -18.4 °C -19 °C 34371.3 hPa Calm     92% 0 mm WeatherDisplay:10.37 W/m2 FEW
07:39 -18.4 °C -19 °C 34371.3 hPa West 1 km/h 2.6 km/h 92% 0 mm WeatherDisplay:10.37 W/m2 FEW
07:44 -18.4 °C -19.1 °C 34371.3 hPa Calm     92% 0 mm WeatherDisplay:10.37 W/m2 FEW
07:50 -18.4 °C -19.1 °C 34371.3 hPa Calm     92% 0 mm WeatherDisplay:10.37 W/m2 FEW
07:55 -18.4 °C -19.1 °C 34371.3 hPa Calm     92% 0 mm WeatherDisplay:10.37 W/m2 FEW
08:00 -18.4 °C -19.1 °C 34371.3 hPa Calm     92% 0 mm WeatherDisplay:10.37 W/m2 FEW
08:05 -18.4 °C -19.1 °C 34371.3 hPa Calm   3.1 km/h 92% 0 mm WeatherDisplay:10.37 W/m2 FEW
08:10 -18.4 °C -19.1 °C 34371.3 hPa Calm     92% 0 mm WeatherDisplay:10.37 W/m2 FEW
08:15 -18.4 °C -19.1 °C 34371.3 hPa Calm     92% 0 mm WeatherDisplay:10.37 W/m2 FEW
08:20 -18.4 °C -19.1 °C 34361.1 hPa Calm     92% 0 mm WeatherDisplay:10.37 W/m2 FEW
08:25 -18.4 °C -19.1 °C 34361.1 hPa Calm     92% 0 mm WeatherDisplay:10.37 W/m2 FEW
08:35 -18.4 °C -19.1 °C 34361.1 hPa Calm     92% 0 mm WeatherDisplay:10.37 W/m2 FEW
08:40 -18.4 °C -19.1 °C 34361.1 hPa Calm     92% 0 mm WeatherDisplay:10.37 W/m2 FEW
08:45 -18.4 °C -19.1 °C 34361.1 hPa Calm     92% 0 mm WeatherDisplay:10.37 W/m2 FEW
08:50 -18.4 °C -19.1 °C 34361.1 hPa NNE 0.5 km/h 3.1 km/h 92% 0 mm WeatherDisplay:10.37 W/m2 FEW
08:55 -18.4 °C -19.1 °C 34371.3 hPa Calm     92% 0 mm WeatherDisplay:10.37 W/m2 FEW
09:00 -18.4 °C -19 °C 34361.1 hPa Calm     92% 0 mm WeatherDisplay:10.37 W/m2 FEW
09:05 -18.4 °C -19 °C 34361.1 hPa NNW 2.3 km/h 9 km/h 92% 0 mm WeatherDisplay:10.37 W/m2 FEW
09:10 -18.4 °C -19 °C 34361.1 hPa Calm     92% 0 mm WeatherDisplay:10.37 W/m2 FEW
09:15 -18.4 °C -19 °C 34361.1 hPa Calm     92% 0 mm WeatherDisplay:10.37 W/m2 FEW
09:20 -18.3 °C -18.9 °C 34371.3 hPa SW 1 km/h 9 km/h 92% 0 mm WeatherDisplay:10.37 W/m2 FEW
09:25 -18.3 °C -18.9 °C 34371.3 hPa Calm     92% 0 mm WeatherDisplay:10.37 W/m2 FEW
09:30 -18.3 °C -18.9 °C 34371.3 hPa Calm     92% 0 mm WeatherDisplay:10.37 W/m2 FEW
09:35 -18.3 °C -18.9 °C 34371.3 hPa Calm     92% 0 mm WeatherDisplay:10.37 W/m2 FEW
09:40 -18.3 °C -18.9 °C 34371.3 hPa Calm   3.1 km/h 92% 0 mm WeatherDisplay:10.37 W/m2 FEW
09:45 -18.2 °C -18.8 °C 34371.3 hPa Calm     92% 0 mm WeatherDisplay:10.37 W/m2 FEW
09:50 -18.2 °C -18.8 °C 34371.3 hPa Calm     92% 0 mm WeatherDisplay:10.37 W/m2 FEW
09:55 -18.2 °C -18.8 °C 34371.3 hPa Calm     92% 0 mm WeatherDisplay:10.37 W/m2 FEW
10:00 -18.2 °C -18.8 °C 34371.3 hPa Calm     92% 0 mm WeatherDisplay:10.37 W/m2 FEW
10:05 -18.2 °C -18.8 °C 34371.3 hPa WSW 0.8 km/h 6 km/h 92% 0 mm WeatherDisplay:10.37 W/m2 FEW
10:10 -18.2 °C -18.8 °C 34371.3 hPa Calm     92% 0 mm WeatherDisplay:10.37 W/m2 FEW
10:15 -18.2 °C -18.8 °C 34371.3 hPa Calm     92% 0 mm WeatherDisplay:10.37 W/m2 FEW
10:20 -18.1 °C -18.7 °C 34371.3 hPa Calm   3.1 km/h 92% 0 mm WeatherDisplay:10.37 W/m2 FEW
10:25 -18.1 °C -18.7 °C 34371.3 hPa WNW 0.8 km/h 6 km/h 92% 0 mm WeatherDisplay:10.37 W/m2 FEW
10:30 -18.1 °C -18.7 °C 34361.1 hPa Calm     92% 0 mm WeatherDisplay:10.37 W/m2 FEW
10:35 -18.1 °C -18.7 °C 34371.3 hPa Calm     92% 0 mm WeatherDisplay:10.37 W/m2 FEW
10:40 -18.1 °C -18.7 °C 34371.3 hPa WSW 0.8 km/h 3.1 km/h 92% 0 mm WeatherDisplay:10.37 W/m2 FEW
10:45 -18.1 °C -18.7 °C 34371.3 hPa WSW 2.9 km/h 9 km/h 92% 0 mm WeatherDisplay:10.37 W/m2 FEW
10:50 -18.1 °C -18.7 °C 34371.3 hPa WSW 1.6 km/h 6 km/h 92% 0 mm WeatherDisplay:10.37 W/m2 FEW
10:55 -18.1 °C -18.7 °C 34371.3 hPa Calm   3.1 km/h 92% 0 mm WeatherDisplay:10.37 W/m2 FEW
11:00 -18.1 °C -18.7 °C 34371.3 hPa Calm     92% 0 mm WeatherDisplay:10.37 W/m2 FEW
11:05 -18.1 °C -18.7 °C 34371.3 hPa West 4.7 km/h 9 km/h 92% 0 mm WeatherDisplay:10.37 W/m2 FEW
11:10 -18.1 °C -18.7 °C 34371.3 hPa SW 2.3 km/h 7.7 km/h 92% 0 mm WeatherDisplay:10.37 W/m2 FEW
11:15 -18.1 °C -18.7 °C 34371.3 hPa West 1 km/h 9 km/h 92% 0 mm WeatherDisplay:10.37 W/m2 FEW
11:20 -18 °C -18.7 °C 34371.3 hPa WNW 6.4 km/h 9 km/h 92% 0 mm WeatherDisplay:10.37 W/m2 FEW
11:25 -18 °C -18.7 °C 34371.3 hPa SSE 0.5 km/h 10.3 km/h 92% 0 mm WeatherDisplay:10.37 W/m2 FEW
11:30 -18 °C -18.7 °C 34371.3 hPa Calm     92% 0 mm WeatherDisplay:10.37 W/m2 FEW
11:35 -17.9 °C -18.6 °C 34371.3 hPa Calm   6 km/h 92% 0 mm WeatherDisplay:10.37 W/m2 FEW
11:40 -17.9 °C -18.6 °C 34371.3 hPa Calm     92% 0 mm WeatherDisplay:10.37 W/m2 FEW
11:45 -17.9 °C -18.6 °C 34371.3 hPa Calm     92% 0 mm WeatherDisplay:10.37 W/m2 FEW
11:50 -17.9 °C -18.5 °C 34371.3 hPa Calm     92% 0 mm WeatherDisplay:10.37 W/m2 FEW
11:55 -17.8 °C -18.5 °C 34371.3 hPa Calm     92% 0 mm WeatherDisplay:10.37 W/m2 FEW
12:00 -17.8 °C -18.4 °C 34371.3 hPa WSW 1 km/h   92% 0 mm WeatherDisplay:10.37 W/m2 FEW
12:05 -17.8 °C -18.4 °C 34371.3 hPa Calm     92% 0 mm WeatherDisplay:10.37 W/m2 FEW
12:10 -17.8 °C -18.4 °C 34371.3 hPa South 1 km/h   92% 0 mm WeatherDisplay:10.37 W/m2 FEW
12:15 -17.7 °C -18.4 °C 34371.3 hPa Calm     92% 0 mm WeatherDisplay:10.37 W/m2 FEW
12:20 -17.7 °C -18.4 °C 34384.8 hPa Calm     92% 0 mm WeatherDisplay:10.37 W/m2 FEW
12:25 -17.7 °C -18.4 °C 34371.3 hPa Calm     92% 0 mm WeatherDisplay:10.37 W/m2 FEW
12:30 -17.7 °C -18.4 °C 34371.3 hPa Calm     92% 0 mm WeatherDisplay:10.37 W/m2 FEW
12:35 -17.7 °C -18.3 °C 34371.3 hPa SSW 2.6 km/h   92% 0 mm WeatherDisplay:10.37 W/m2 FEW
12:45 -17.7 °C -18.3 °C 34371.3 hPa Calm     92% 0 mm WeatherDisplay:10.37 W/m2 FEW
12:50 -17.7 °C -18.3 °C 34361.1 hPa Calm     92% 0 mm WeatherDisplay:10.37 W/m2 FEW
12:55 -17.6 °C -18.3 °C 34361.1 hPa Calm     92% 0 mm WeatherDisplay:10.37 W/m2 FEW
13:00 -17.6 °C -18.3 °C 34361.1 hPa Calm     92% 0 mm WeatherDisplay:10.37 W/m2 FEW
13:05 -17.6 °C -18.3 °C 34361.1 hPa Calm     92% 0 mm WeatherDisplay:10.37 W/m2 FEW
13:10 -17.6 °C -18.3 °C 34361.1 hPa Calm     92% 0 mm WeatherDisplay:10.37 W/m2 FEW
13:15 -17.6 °C -18.3 °C 34361.1 hPa SSW 1 km/h 6 km/h 92% 0 mm WeatherDisplay:10.37 W/m2 FEW
13:20 -17.6 °C -18.3 °C 34361.1 hPa Calm     92% 0 mm WeatherDisplay:10.37 W/m2 FEW
13:25 -17.6 °C -18.3 °C 34347.6 hPa Calm     92% 0 mm WeatherDisplay:10.37 W/m2 FEW
13:26 -17.6 °C -18.3 °C 34347.6 hPa SW 0.8 km/h 2.6 km/h 92% 0 mm WeatherDisplay:10.37 W/m2 FEW
13:31 -17.6 °C -18.2 °C 34347.6 hPa Calm   2.6 km/h 92% 0 mm WeatherDisplay:10.37 W/m2 FEW
13:36 -17.6 °C -18.2 °C 34347.6 hPa Calm     92% 0 mm WeatherDisplay:10.37 W/m2 FEW
13:41 -17.6 °C -18.2 °C 34347.6 hPa Calm     92% 0 mm WeatherDisplay:10.37 W/m2 FEW
13:46 -17.6 °C -18.2 °C 34347.6 hPa Calm     92% 0 mm WeatherDisplay:10.37 W/m2 FEW
13:51 -17.6 °C -18.2 °C 34347.6 hPa Calm     92% 0 mm WeatherDisplay:10.37 W/m2 FEW
13:56 -17.6 °C -18.2 °C 34347.6 hPa Calm     92% 0 mm WeatherDisplay:10.37 W/m2 FEW
14:01 -17.6 °C -18.2 °C 34347.6 hPa Calm     92% 0 mm WeatherDisplay:10.37 W/m2 FEW
14:06 -17.6 °C -18.2 °C 34347.6 hPa Calm     92% 0 mm WeatherDisplay:10.37 W/m2 FEW
14:11 -17.6 °C -18.2 °C 34347.6 hPa South 2.6 km/h 10.3 km/h 92% 0 mm WeatherDisplay:10.37 W/m2 FEW
14:16 -17.6 °C -18.2 °C 34347.6 hPa Calm     92% 0 mm WeatherDisplay:10.37 W/m2 FEW
14:21 -17.6 °C -18.2 °C 34347.6 hPa Calm     92% 0 mm WeatherDisplay:10.37 W/m2 FEW
14:26 -17.6 °C -18.2 °C 34347.6 hPa WSW 2.1 km/h 3.1 km/h 92% 0 mm WeatherDisplay:10.37 W/m2 FEW
14:31 -17.6 °C -18.2 °C 34347.6 hPa Calm     92% 0 mm WeatherDisplay:10.37 W/m2 FEW
14:36 -17.6 °C -18.2 °C 34347.6 hPa Calm     92% 0 mm WeatherDisplay:10.37 W/m2 FEW
14:41 -17.6 °C -18.2 °C 34347.6 hPa Calm     92% 0 mm WeatherDisplay:10.37 W/m2 FEW
14:46 -17.6 °C -18.2 °C 34347.6 hPa Calm     92% 0 mm WeatherDisplay:10.37 W/m2 FEW
14:51 -17.6 °C -18.2 °C 34347.6 hPa Calm     92% 0 mm WeatherDisplay:10.37 W/m2 FEW
14:56 -17.6 °C -18.2 °C 34347.6 hPa Calm     92% 0 mm WeatherDisplay:10.37 W/m2 FEW
15:01 -17.6 °C -18.2 °C 34337.4 hPa Calm     92% 0 mm WeatherDisplay:10.37 W/m2 FEW
15:06 -17.6 °C -18.3 °C 34347.6 hPa Calm     92% 0 mm WeatherDisplay:10.37 W/m2 FEW
15:11 -17.6 °C -18.3 °C 34347.6 hPa Calm     92% 0 mm WeatherDisplay:10.37 W/m2 FEW
15:16 -17.6 °C -18.3 °C 34347.6 hPa SE 0.3 km/h 9 km/h 92% 0 mm WeatherDisplay:10.37 W/m2 FEW
15:21 -17.6 °C -18.3 °C 34347.6 hPa Calm   9 km/h 92% 0 mm WeatherDisplay:10.37 W/m2 FEW
15:26 -17.6 °C -18.2 °C 34347.6 hPa Calm   2.6 km/h 92% 0 mm WeatherDisplay:10.37 W/m2 FEW
15:31 -17.6 °C -18.2 °C 34347.6 hPa SW 5 km/h 9 km/h 92% 0 mm WeatherDisplay:10.37 W/m2 FEW
15:36 -17.6 °C -18.2 °C 34347.6 hPa Calm   6 km/h 92% 0 mm WeatherDisplay:10.37 W/m2 FEW
15:41 -17.6 °C -18.2 °C 34347.6 hPa Calm     92% 0 mm WeatherDisplay:10.37 W/m2 FEW
15:46 -17.6 °C -18.2 °C 34347.6 hPa NE 0.8 km/h 9 km/h 92% 0 mm WeatherDisplay:10.37 W/m2 FEW
15:51 -17.6 °C -18.2 °C 34337.4 hPa Calm     92% 0 mm WeatherDisplay:10.37 W/m2 FEW
15:56 -17.6 °C -18.2 °C 34337.4 hPa Calm     92% 0 mm WeatherDisplay:10.37 W/m2 FEW
16:01 -17.6 °C -18.2 °C 34337.4 hPa Calm     92% 0 mm WeatherDisplay:10.37 W/m2 FEW
16:06 -17.6 °C -18.2 °C 34337.4 hPa Calm     92% 0 mm WeatherDisplay:10.37 W/m2 FEW
16:11 -17.6 °C -18.2 °C 34337.4 hPa Calm     92% 0 mm WeatherDisplay:10.37 W/m2 FEW
16:16 -17.6 °C -18.2 °C 34327.3 hPa Calm   3.1 km/h 92% 0 mm WeatherDisplay:10.37 W/m2 FEW
16:21 -17.6 °C -18.2 °C 34327.3 hPa South 0.5 km/h 6 km/h 92% 0 mm WeatherDisplay:10.37 W/m2 FEW
16:26 -17.5 °C -18.2 °C 34327.3 hPa Calm     92% 0 mm WeatherDisplay:10.37 W/m2 FEW
16:31 -17.5 °C -18.2 °C 34327.3 hPa Calm     92% 0 mm WeatherDisplay:10.37 W/m2 FEW
16:36 -17.5 °C -18.2 °C 34327.3 hPa SSW 1 km/h 6 km/h 92% 0 mm WeatherDisplay:10.37 W/m2 FEW
16:41 -17.5 °C -18.2 °C 34327.3 hPa Calm   6 km/h 92% 0 mm WeatherDisplay:10.37 W/m2 FEW
16:46 -17.4 °C -18.1 °C 34327.3 hPa Calm     92% 0 mm WeatherDisplay:10.37 W/m2 FEW
16:51 -17.4 °C -18.1 °C 34327.3 hPa Calm     92% 0 mm WeatherDisplay:10.37 W/m2 FEW
16:56 -17.4 °C -18.1 °C 34313.7 hPa WSW 0.8 km/h 9 km/h 92% 0 mm WeatherDisplay:10.37 W/m2 FEW
17:01 -17.4 °C -18.1 °C 34313.7 hPa Calm     92% 0 mm WeatherDisplay:10.37 W/m2 FEW
17:06 -17.4 °C -18.1 °C 34313.7 hPa Calm     92% 0 mm WeatherDisplay:10.37 W/m2 FEW
17:16 -17.4 °C -18.1 °C 34313.7 hPa SSW 2.6 km/h   92% 0 mm WeatherDisplay:10.37 W/m2 FEW
17:21 -17.4 °C -18.1 °C 34313.7 hPa SSE 5 km/h 9 km/h 92% 0 mm WeatherDisplay:10.37 W/m2 FEW
17:26 -17.4 °C -18.1 °C 34313.7 hPa Calm     92% 0 mm WeatherDisplay:10.37 W/m2 FEW
17:31 -17.4 °C -18.1 °C 34303.6 hPa Calm     92% 0 mm WeatherDisplay:10.37 W/m2 FEW
17:36 -17.4 °C -18.1 °C 34313.7 hPa Calm     92% 0 mm WeatherDisplay:10.37 W/m2 FEW
17:41 -17.4 °C -18 °C 34303.6 hPa Calm   3.1 km/h 92% 0 mm WeatherDisplay:10.37 W/m2 FEW
17:46 -17.4 °C -18 °C 34303.6 hPa WNW 1.3 km/h 9 km/h 92% 0 mm WeatherDisplay:10.37 W/m2 FEW
17:51 -17.4 °C -18 °C 34303.6 hPa Calm     92% 0 mm WeatherDisplay:10.37 W/m2 FEW
17:56 -17.4 °C -18 °C 34303.6 hPa SSE 1 km/h 5.1 km/h 92% 0 mm WeatherDisplay:10.37 W/m2 FEW
18:01 -17.4 °C -18 °C 34303.6 hPa Calm     92% 0 mm WeatherDisplay:10.37 W/m2 FEW
18:06 -17.3 °C -18 °C 34303.6 hPa WNW 3.4 km/h 11.9 km/h 92% 0 mm WeatherDisplay:10.37 W/m2 FEW
18:11 -17.3 °C -18 °C 34303.6 hPa North 1 km/h 9 km/h 92% 0 mm WeatherDisplay:10.37 W/m2 FEW
18:16 -17.3 °C -18 °C 34303.6 hPa SW 5.1 km/h 7.7 km/h 92% 0 mm WeatherDisplay:10.37 W/m2 FEW
18:21 -17.3 °C -17.9 °C 34303.6 hPa Calm     92% 0 mm WeatherDisplay:10.37 W/m2 FEW
18:26 -17.3 °C -17.9 °C 34293.4 hPa SSE 4.3 km/h 9 km/h 92% 0 mm WeatherDisplay:10.37 W/m2 FEW
18:36 -17.3 °C -17.9 °C 34293.4 hPa Calm   3.1 km/h 92% 0 mm WeatherDisplay:10.37 W/m2 FEW
18:41 -17.3 °C -17.9 °C 34293.4 hPa Calm   6 km/h 92% 0 mm WeatherDisplay:10.37 W/m2 FEW
18:46 -17.3 °C -17.9 °C 34293.4 hPa WSW 0.3 km/h 3.1 km/h 92% 0 mm WeatherDisplay:10.37 W/m2 FEW
18:51 -17.2 °C -17.9 °C 34293.4 hPa East 0.3 km/h 9 km/h 92% 0 mm WeatherDisplay:10.37 W/m2 FEW
18:56 -17.2 °C -17.9 °C 34293.4 hPa Calm   9 km/h 92% 0 mm WeatherDisplay:10.37 W/m2 FEW
19:01 -17.2 °C -17.9 °C 34279.9 hPa WNW 2.3 km/h 11.9 km/h 92% 0 mm WeatherDisplay:10.37 W/m2 FEW
19:06 -17.2 °C -17.9 °C 34279.9 hPa WSW 2.3 km/h 7.7 km/h 92% 0 mm WeatherDisplay:10.37 W/m2 FEW
19:11 -17.2 °C -17.8 °C 34279.9 hPa Calm   3.1 km/h 92% 0 mm WeatherDisplay:10.37 W/m2 FEW
19:16 -17.2 °C -17.8 °C 34279.9 hPa South 4.2 km/h 6 km/h 92% 0 mm WeatherDisplay:10.37 W/m2 FEW
19:21 -17.2 °C -17.8 °C 34279.9 hPa Calm     92% 0 mm WeatherDisplay:10.37 W/m2 FEW
19:26 -17.1 °C -17.8 °C 34279.9 hPa SW 2.9 km/h 10.3 km/h 92% 0 mm WeatherDisplay:10.37 W/m2 FEW
19:31 -17.1 °C -17.8 °C 34279.9 hPa SW 3.4 km/h 9 km/h 92% 0 mm WeatherDisplay:10.37 W/m2 FEW
19:36 -17.1 °C -17.7 °C 34279.9 hPa SW 3.1 km/h 9 km/h 92% 0 mm WeatherDisplay:10.37 W/m2 FEW
19:41 -17.1 °C -17.7 °C 34279.9 hPa West 0.3 km/h 6 km/h 92% 0 mm WeatherDisplay:10.37 W/m2 FEW
19:46 -17.1 °C -17.7 °C 34279.9 hPa Calm     92% 0 mm WeatherDisplay:10.37 W/m2 FEW
19:51 -17.1 °C -17.7 °C 34279.9 hPa West 1.6 km/h 7.7 km/h 92% 0 mm WeatherDisplay:10.37 W/m2 FEW
19:56 -17.1 °C -17.7 °C 34293.4 hPa SSW 0.5 km/h   92% 0 mm WeatherDisplay:10.37 W/m2 FEW
20:01 -17.1 °C -17.7 °C 34293.4 hPa SW 1.8 km/h 11.9 km/h 92% 0 mm WeatherDisplay:10.37 W/m2 FEW
20:06 -17.1 °C -17.7 °C 34293.4 hPa Calm   9 km/h 92% 0 mm WeatherDisplay:10.37 W/m2 FEW
20:11 -17.1 °C -17.7 °C 34293.4 hPa Calm     92% 0 mm WeatherDisplay:10.37 W/m2 FEW
20:16 -17.1 °C -17.7 °C 34279.9 hPa Calm     92% 0 mm WeatherDisplay:10.37 W/m2 FEW
20:21 -17.1 °C -17.7 °C 34279.9 hPa NNW 2.9 km/h 2.9 km/h 92% 0 mm WeatherDisplay:10.37 W/m2 FEW
20:26 -17.1 °C -17.7 °C 34279.9 hPa NE 0.8 km/h 6 km/h 92% 0 mm WeatherDisplay:10.37 W/m2 FEW
20:31 -17.1 °C -17.7 °C 34279.9 hPa Calm   9 km/h 92% 0 mm WeatherDisplay:10.37 W/m2 FEW
20:36 -17.1 °C -17.7 °C 34279.9 hPa Calm     92% 0 mm WeatherDisplay:10.37 W/m2 FEW
20:41 -17.1 °C -17.7 °C 34279.9 hPa NNW 1.6 km/h   92% 0 mm WeatherDisplay:10.37 W/m2 FEW
20:46 -17.1 °C -17.7 °C 34279.9 hPa Calm     92% 0 mm WeatherDisplay:10.37 W/m2 FEW
20:51 -17.1 °C -17.7 °C 34279.9 hPa Calm   9 km/h 92% 0 mm WeatherDisplay:10.37 W/m2 FEW
20:56 -17.1 °C -17.7 °C 34269.7 hPa Calm     92% 0 mm WeatherDisplay:10.37 W/m2 FEW
21:01 -17.1 °C -17.7 °C 34269.7 hPa NW 3.7 km/h 9 km/h 92% 0 mm WeatherDisplay:10.37 W/m2 FEW
21:06 -17.1 °C -17.7 °C 34269.7 hPa Calm     92% 0 mm WeatherDisplay:10.37 W/m2 FEW
21:11 -17.1 °C -17.7 °C 34269.7 hPa Calm   9 km/h 92% 0 mm WeatherDisplay:10.37 W/m2 FEW
21:16 -17.1 °C -17.7 °C 34269.7 hPa Calm     92% 0 mm WeatherDisplay:10.37 W/m2 FEW
21:21 -17.1 °C -17.7 °C 34269.7 hPa Calm     92% 0 mm WeatherDisplay:10.37 W/m2 FEW
21:26 -17.1 °C -17.7 °C 34269.7 hPa South 1.6 km/h 7.7 km/h 92% 0 mm WeatherDisplay:10.37 W/m2 FEW
21:31 -17.1 °C -17.7 °C 34269.7 hPa West 6 km/h 6 km/h 92% 0 mm WeatherDisplay:10.37 W/m2 FEW
21:36 -17.1 °C -17.7 °C 34269.7 hPa SSW 1.6 km/h 11.9 km/h 92% 0 mm WeatherDisplay:10.37 W/m2 FEW
21:41 -17.1 °C -17.7 °C 34269.7 hPa NE 2.6 km/h 9 km/h 92% 0 mm WeatherDisplay:10.37 W/m2 FEW
21:46 -17.1 °C -17.7 °C 34269.7 hPa WSW 2.3 km/h 15 km/h 92% 0 mm WeatherDisplay:10.37 W/m2 FEW
21:51 -17.1 °C -17.7 °C 34269.7 hPa North 0.5 km/h 6 km/h 92% 0 mm WeatherDisplay:10.37 W/m2 FEW
21:56 -17.1 °C -17.7 °C 34269.7 hPa Calm   20.9 km/h 92% 0 mm WeatherDisplay:10.37 W/m2 FEW
22:01 -17.1 °C -17.7 °C 34269.7 hPa Calm     92% 0 mm WeatherDisplay:10.37 W/m2 FEW
22:06 -17.1 °C -17.7 °C 34256.2 hPa SSE 0.3 km/h 10.3 km/h 92% 0 mm WeatherDisplay:10.37 W/m2 FEW
22:11 -17.1 °C -17.7 °C 34256.2 hPa WNW 3.4 km/h 10.3 km/h 92% 0 mm WeatherDisplay:10.37 W/m2 FEW
22:16 -17.1 °C -17.7 °C 34256.2 hPa SSW 1.3 km/h 5.1 km/h 92% 0 mm WeatherDisplay:10.37 W/m2 FEW
22:21 -17.1 °C -17.7 °C 34256.2 hPa NNE 2.9 km/h 9 km/h 92% 0 mm WeatherDisplay:10.37 W/m2 FEW
22:26 -17.1 °C -17.7 °C 34256.2 hPa ENE 2.6 km/h   92% 0 mm WeatherDisplay:10.37 W/m2 FEW
22:31 -17.1 °C -17.7 °C 34256.2 hPa Calm     92% 0 mm WeatherDisplay:10.37 W/m2 FEW
22:36 -17.1 °C -17.7 °C 34256.2 hPa Calm     92% 0 mm WeatherDisplay:10.37 W/m2 FEW
22:41 -17.1 °C -17.7 °C 34256.2 hPa NE 1.6 km/h 9 km/h 92% 0 mm WeatherDisplay:10.37 W/m2 FEW
22:46 -17.1 °C -17.7 °C 34256.2 hPa NNE 1 km/h 2.6 km/h 92% 0 mm WeatherDisplay:10.37 W/m2 FEW
22:51 -17.1 °C -17.7 °C 34256.2 hPa NE 1.3 km/h 9 km/h 92% 0 mm WeatherDisplay:10.37 W/m2 FEW
22:56 -17.1 °C -17.7 °C 34256.2 hPa WNW 1 km/h 6 km/h 92% 0 mm WeatherDisplay:10.37 W/m2 FEW
23:01 -17.1 °C -17.7 °C 34246 hPa Calm   3.1 km/h 92% 0 mm WeatherDisplay:10.37 W/m2 FEW
23:06 -17.1 °C -17.7 °C 34246 hPa WSW 2.9 km/h 3.1 km/h 92% 0 mm WeatherDisplay:10.37 W/m2 FEW
23:11 -17.1 °C -17.7 °C 34246 hPa NE 2.9 km/h 7.7 km/h 92% 0 mm WeatherDisplay:10.37 W/m2 FEW
23:16 -17.1 °C -17.7 °C 34246 hPa South 2.9 km/h 9 km/h 92% 0 mm WeatherDisplay:10.37 W/m2 FEW
23:21 -17.1 °C -17.7 °C 34246 hPa WNW 1.3 km/h 6 km/h 92% 0 mm WeatherDisplay:10.37 W/m2 FEW
23:26 -17.1 °C -17.7 °C 34246 hPa NW 0.3 km/h 12.9 km/h 92% 0 mm WeatherDisplay:10.37 W/m2 FEW
23:31 -17.1 °C -17.7 °C 34246 hPa Calm     92% 0 mm WeatherDisplay:10.37 W/m2 FEW
23:36 -17.1 °C -17.7 °C 34246 hPa WNW 3.4 km/h 17.9 km/h 92% 0 mm WeatherDisplay:10.37 W/m2 FEW
23:41 -17.1 °C -17.7 °C 34246 hPa SE 1.6 km/h   92% 0 mm WeatherDisplay:10.37 W/m2 FEW
23:46 -17.1 °C -17.7 °C 34246 hPa West 1 km/h 6 km/h 92% 0 mm WeatherDisplay:10.37 W/m2 FEW
23:51 -17.1 °C -17.7 °C 34235.8 hPa NW 4.2 km/h 9 km/h 92% 0 mm WeatherDisplay:10.37 W/m2 FEW
23:56 -17.1 °C -17.7 °C 34235.8 hPa SSW 1.3 km/h 6 km/h 92% 0 mm WeatherDisplay:10.37 W/m2 FEW
Tuulensuunkaari, Veikkola, Suomi
Compliments of Weather Underground - 2.5 mb